Maersk Eindhoven — OXFG2 — position and weather

sailwx.info

Track history (hours):
 
Tides and Currents Weather Stations Pressure Air Temp Water Temp Dewpoint Dewpoint Depression Visibility Wind Speed Wind Dir Waves Ship Positions

Maersk Eindhoven

Last reported at 2018-Apr-16 16:13 UTC. Time now 2018-Apr-21 17:11 UTC.
Position N 01°14' E 103°31'.

Length 366 m; draft 14.1 m.

Type: Cargo ship. MMSI: 219027000.

Date/timePositionNaut miles runAvg speedWind from/ knotsBaromVisibWave heightAir tempDewpointWater temp
2018-Apr-16 16:13N 01°14' E 103°31'2 9.7
2018-Apr-16 15:59N 01°16' E 103°32'5 9.5
2018-Apr-16 15:28N 01°20' E 103°33'0 0.0
2018-Apr-16 11:38N 01°20' E 103°33'0 0.0
2018-Apr-16 11:23N 01°20' E 103°33'0 0.0
2018-Apr-16 10:56N 01°20' E 103°33'0 0.0
2018-Apr-16 10:20N 01°20' E 103°33'0 0.0
2018-Apr-16 09:41N 01°20' E 103°33'0 0.0
2018-Apr-16 09:26N 01°20' E 103°33'0 0.0
2018-Apr-16 08:17N 01°20' E 103°33'0 0.0
2018-Apr-16 07:35N 01°20' E 103°33'0 0.0
2018-Apr-16 07:26N 01°20' E 103°33'0 0.0
2018-Apr-16 05:56N 01°20' E 103°33'0 0.0
2018-Apr-16 05:20N 01°20' E 103°33'0 0.0
2018-Apr-16 04:59N 01°20' E 103°33'0 0.0
2018-Apr-16 03:23N 01°20' E 103°33'0 0.0
2018-Apr-16 01:59N 01°20' E 103°33'0 0.0
2018-Apr-16 01:05N 01°20' E 103°33'0 0.0
2018-Apr-16 00:47N 01°20' E 103°33'0 0.0
2018-Apr-16 00:29N 01°20' E 103°33'0 0.0
2018-Apr-15 23:56N 01°20' E 103°33'0 0.0
2018-Apr-15 23:29N 01°20' E 103°33'0 0.0
2018-Apr-15 22:59N 01°20' E 103°33'0 0.0
2018-Apr-15 22:29N 01°20' E 103°33'0 0.0
2018-Apr-15 21:59N 01°20' E 103°33'0 0.0
2018-Apr-15 21:29N 01°20' E 103°33'0 0.0
2018-Apr-15 20:44N 01°20' E 103°33'0 0.0
2018-Apr-15 20:29N 01°20' E 103°33'0 0.0
2018-Apr-15 19:59N 01°20' E 103°33'0 0.0
2018-Apr-15 19:29N 01°20' E 103°33'0 0.0
2018-Apr-15 18:53N 01°20' E 103°33'0 0.0
2018-Apr-15 18:29N 01°20' E 103°33'0 0.0
2018-Apr-15 17:59N 01°20' E 103°33'0 0.0
2018-Apr-15 17:17N 01°20' E 103°33'0 0.0
2018-Apr-15 16:56N 01°20' E 103°33'0 0.0
2018-Apr-15 16:26N 01°20' E 103°33'0 0.0
2018-Apr-15 15:56N 01°20' E 103°33'0 0.0
2018-Apr-15 14:20N 01°20' E 103°33'0 0.2
2018-Apr-15 13:59N 01°20' E 103°33'0 0.1
2018-Apr-15 13:17N 01°20' E 103°33'0 0.1
2018-Apr-15 13:00N 01°20' E 103°33'1 1.6
2018-Apr-15 12:30N 01°20' E 103°33'4 7.5
2018-Apr-15 11:59N 01°16' E 103°33'2 4.4
2018-Apr-15 11:29N 01°14' E 103°32'0 1.0
2018-Apr-15 11:01N 01°13' E 103°32'2 4.4
2018-Apr-15 10:30N 01°11' E 103°31'2 3.9
2018-Apr-15 09:58N 01°09' E 103°32'4 7.8
2018-Apr-15 09:31N 01°11' E 103°35'3 4.9
2018-Apr-15 09:00N 01°11' E 103°38'3 6.4
2018-Apr-15 08:31N 01°10' E 103°41'3 6.5
2018-Apr-15 08:00N 01°09' E 103°44'4 7.8
2018-Apr-15 07:30N 01°10' E 103°47'4 7.7
2018-Apr-15 07:00N 01°12' E 103°51'3 6.2
2018-Apr-15 06:30N 01°13' E 103°54'3 6.5
2018-Apr-15 06:00N 01°14' E 103°57'3 6.7
2018-Apr-15 05:30N 01°15' E 103°60'4 6.9
2018-Apr-15 04:59N 01°16' E 104°03'4 7.4
2018-Apr-15 04:29N 01°16' E 104°07'7 8.1
2018-Apr-15 03:34N 01°17' E 104°14'  
2018-Apr-11 01:10N 23°13' E 117°27'422.4
2018-Apr-11 00:59N 23°17' E 117°29'1121.7
2018-Apr-11 00:30N 23°26' E 117°36'1122.5
2018-Apr-11 00:00N 23°31' E 117°46'1122.4
2018-Apr-10 23:30N 23°37' E 117°57'1122.3
2018-Apr-10 23:00N 23°43' E 118°07'1122.4
2018-Apr-10 22:30N 23°50' E 118°16'1122.0
2018-Apr-10 22:00N 23°56' E 118°27'1121.6
2018-Apr-10 21:29N 24°02' E 118°37'1222.0
2018-Apr-10 20:58N 24°09' E 118°47'1121.8
2018-Apr-10 20:26N 24°16' E 118°57'41516.4
2018-Apr-09 19:09N 30°34' E 122°09'5 0.2
2018-Apr-08 20:35N 30°37' E 122°03'0 0.1
2018-Apr-08 20:17N 30°37' E 122°03'0 0.9
2018-Apr-08 19:56N 30°37' E 122°03'914.7
2018-Apr-08 19:19N 30°34' E 122°13'4 7.0
2018-Apr-08 18:44N 30°33' E 122°18'1 2.2
2018-Apr-08 18:10N 30°33' E 122°19'1 2.4
2018-Apr-08 17:37N 30°33' E 122°21'1 4.2
2018-Apr-08 17:16N 30°33' E 122°22'2 5.5
2018-Apr-08 16:57N 30°32' E 122°24'  
Track history (hours):
 
Tides and Currents Weather Stations Pressure Air Temp Water Temp Dewpoint Dewpoint Depression Visibility Wind Speed Wind Dir Waves Ship Positions

Maersk Eindhoven

Last reported at 2018-Apr-16 16:13 UTC. Time now 2018-Apr-21 17:11 UTC.
Position N 01°14' E 103°31'.

Length 366 m; draft 14.1 m.

Type: Cargo ship. MMSI: 219027000.

Date/timePositionNaut miles runAvg speedWind from/ knotsBaromVisibWave heightAir tempDewpointWater temp
2018-Apr-16 16:13N 01°14' E 103°31'2 9.7
2018-Apr-16 15:59N 01°16' E 103°32'5 9.5
2018-Apr-16 15:28N 01°20' E 103°33'0 0.0
2018-Apr-16 11:38N 01°20' E 103°33'0 0.0
2018-Apr-16 11:23N 01°20' E 103°33'0 0.0
2018-Apr-16 10:56N 01°20' E 103°33'0 0.0
2018-Apr-16 10:20N 01°20' E 103°33'0 0.0
2018-Apr-16 09:41N 01°20' E 103°33'0 0.0
2018-Apr-16 09:26N 01°20' E 103°33'0 0.0
2018-Apr-16 08:17N 01°20' E 103°33'0 0.0
2018-Apr-16 07:35N 01°20' E 103°33'0 0.0
2018-Apr-16 07:26N 01°20' E 103°33'0 0.0
2018-Apr-16 05:56N 01°20' E 103°33'0 0.0
2018-Apr-16 05:20N 01°20' E 103°33'0 0.0
2018-Apr-16 04:59N 01°20' E 103°33'0 0.0
2018-Apr-16 03:23N 01°20' E 103°33'0 0.0
2018-Apr-16 01:59N 01°20' E 103°33'0 0.0
2018-Apr-16 01:05N 01°20' E 103°33'0 0.0
2018-Apr-16 00:47N 01°20' E 103°33'0 0.0
2018-Apr-16 00:29N 01°20' E 103°33'0 0.0
2018-Apr-15 23:56N 01°20' E 103°33'0 0.0
2018-Apr-15 23:29N 01°20' E 103°33'0 0.0
2018-Apr-15 22:59N 01°20' E 103°33'0 0.0
2018-Apr-15 22:29N 01°20' E 103°33'0 0.0
2018-Apr-15 21:59N 01°20' E 103°33'0 0.0
2018-Apr-15 21:29N 01°20' E 103°33'0 0.0
2018-Apr-15 20:44N 01°20' E 103°33'0 0.0
2018-Apr-15 20:29N 01°20' E 103°33'0 0.0
2018-Apr-15 19:59N 01°20' E 103°33'0 0.0
2018-Apr-15 19:29N 01°20' E 103°33'0 0.0
2018-Apr-15 18:53N 01°20' E 103°33'0 0.0
2018-Apr-15 18:29N 01°20' E 103°33'0 0.0
2018-Apr-15 17:59N 01°20' E 103°33'0 0.0
2018-Apr-15 17:17N 01°20' E 103°33'0 0.0
2018-Apr-15 16:56N 01°20' E 103°33'0 0.0
2018-Apr-15 16:26N 01°20' E 103°33'0 0.0
2018-Apr-15 15:56N 01°20' E 103°33'0 0.0
2018-Apr-15 14:20N 01°20' E 103°33'0 0.2
2018-Apr-15 13:59N 01°20' E 103°33'0 0.1
2018-Apr-15 13:17N 01°20' E 103°33'0 0.1
2018-Apr-15 13:00N 01°20' E 103°33'1 1.6
2018-Apr-15 12:30N 01°20' E 103°33'4 7.5
2018-Apr-15 11:59N 01°16' E 103°33'2 4.4
2018-Apr-15 11:29N 01°14' E 103°32'0 1.0
2018-Apr-15 11:01N 01°13' E 103°32'2 4.4
2018-Apr-15 10:30N 01°11' E 103°31'2 3.9
2018-Apr-15 09:58N 01°09' E 103°32'4 7.8
2018-Apr-15 09:31N 01°11' E 103°35'3 4.9
2018-Apr-15 09:00N 01°11' E 103°38'3 6.4
2018-Apr-15 08:31N 01°10' E 103°41'3 6.5
2018-Apr-15 08:00N 01°09' E 103°44'4 7.8
2018-Apr-15 07:30N 01°10' E 103°47'4 7.7
2018-Apr-15 07:00N 01°12' E 103°51'3 6.2
2018-Apr-15 06:30N 01°13' E 103°54'3 6.5
2018-Apr-15 06:00N 01°14' E 103°57'3 6.7
2018-Apr-15 05:30N 01°15' E 103°60'4 6.9
2018-Apr-15 04:59N 01°16' E 104°03'4 7.4
2018-Apr-15 04:29N 01°16' E 104°07'7 8.1
2018-Apr-15 03:34N 01°17' E 104°14'  
2018-Apr-11 01:10N 23°13' E 117°27'422.4
2018-Apr-11 00:59N 23°17' E 117°29'1121.7
2018-Apr-11 00:30N 23°26' E 117°36'1122.5
2018-Apr-11 00:00N 23°31' E 117°46'1122.4
2018-Apr-10 23:30N 23°37' E 117°57'1122.3
2018-Apr-10 23:00N 23°43' E 118°07'1122.4
2018-Apr-10 22:30N 23°50' E 118°16'1122.0
2018-Apr-10 22:00N 23°56' E 118°27'1121.6
2018-Apr-10 21:29N 24°02' E 118°37'1222.0
2018-Apr-10 20:58N 24°09' E 118°47'1121.8
2018-Apr-10 20:26N 24°16' E 118°57'41516.4
2018-Apr-09 19:09N 30°34' E 122°09'5 0.2
2018-Apr-08 20:35N 30°37' E 122°03'0 0.1
2018-Apr-08 20:17N 30°37' E 122°03'0 0.9
2018-Apr-08 19:56N 30°37' E 122°03'914.7
2018-Apr-08 19:19N 30°34' E 122°13'4 7.0
2018-Apr-08 18:44N 30°33' E 122°18'1 2.2
2018-Apr-08 18:10N 30°33' E 122°19'1 2.4
2018-Apr-08 17:37N 30°33' E 122°21'1 4.2
2018-Apr-08 17:16N 30°33' E 122°22'2 5.5
2018-Apr-08 16:57N 30°32' E 122°24'  

Dump ship's entire track history